SNCO2: N. Canadian River at Shawnee, OK

Data processed at Wed May 22 2019 23:50


All information presented herein is the property of the government of the United States of America and may be revised or deleted at any time without prior notice.
Dissemination of this information without the expressed written consent of the Public Affairs Office, Tulsa District U.S. Army Corps of Engineers is strictly prohibited.
These data are gathered electronically and, as presented, have not undergone any form of quality control. These data are not guaranteed to be valid or correct.
Go to home page.
Go to station list.
Go to home page.

Upstream stations:

Downstream station:
Previous Day
Next Day
Current Day
    
SHEF ID:       SNCO2     North Canadian River at Shawnee,
STATION TYPE:  

                STAGE  RIV-FLOW  BAT-LOAD
                   ft       cfs      volt
              Ccp-Rev   Ccp-Rev   Ccp-Rev
(US/Central)
05/22 00:00     20.07     10337     12.83
05/22 01:00     20.18     10528     12.83
05/22 02:00     20.19     10545     12.77
05/22 03:00     20.36     10845     12.77
05/22 04:00     20.47     11040     12.71
05/22 05:00     20.51     11120     12.71
05/22 06:00     20.60     11317     12.71
05/22 07:00     20.62     11361     12.65
05/22 08:00     20.77     11695     12.77
05/22 09:00     20.80     11762     13.18
05/22 10:00     20.93     12145     13.53
05/22 11:00     21.02     12421     13.53
05/22 12:00     21.13     12763     13.42
05/22 13:00     21.19     12985     13.65
05/22 14:00     21.32     13493     13.71
05/22 15:00     21.39     13772     13.36
05/22 16:00     21.52     14386     13.30
05/22 17:00     21.58     14695     13.48
05/22 18:00     21.76     15919     13.36
05/22 19:00     21.79     16189     13.30
05/22 20:00     21.86     16832     13.07
05/22 21:00     21.95     17691     12.89
05/22 22:00     22.08     18999     12.89
05/22 23:00      ----      ----      ----